Time;durP1;ratioP1;P1;durP2;ratioP2;P2;SDS_P1;SDS_P2;PMS_P1;PMS_P2;Temp;Humidity;BMP_temperature;BMP_pressure;BME280_temperature;BME280_humidity;BME280_pressure;Samples;Min_cycle;Max_cycle;Signal;HPM_P1;HPM_P2
2023/11/04 00:00:16;;;;;;;;;;;22.80;54.70;;;;;;5042482;28;19916;-74
2023/11/04 00:02:42;;;;;;;;;;;22.80;54.70;;;;;;5041093;28;19913;-72
2023/11/04 00:05:08;;;;;;;;;;;22.70;54.70;;;;;;5037933;28;19915;-74
2023/11/04 00:07:34;;;;;;;;;;;22.70;54.70;;;;;;5041570;28;20399;-73
2023/11/04 00:09:59;;;;;;;;;;;22.70;54.70;;;;;;5042131;28;19995;-74
2023/11/04 00:12:25;;;;;;;;;;;22.70;54.80;;;;;;5040400;28;20429;-66
2023/11/04 00:14:50;;;;;;;;;;;22.70;54.80;;;;;;5041971;28;19904;-67
2023/11/04 00:17:16;;;;;;;;;;;22.70;54.80;;;;;;5041148;28;19905;-64
2023/11/04 00:19:41;;;;;;;;;;;22.60;54.70;;;;;;5038693;28;20435;-65
2023/11/04 00:22:07;;;;;;;;;;;22.70;54.80;;;;;;5043048;28;19909;-64
2023/11/04 00:24:32;;;;;;;;;;;22.60;54.70;;;;;;5041809;28;20385;-66
2023/11/04 00:26:59;;;;;;;;;;;22.60;54.80;;;;;;5041961;28;19943;-65
2023/11/04 00:29:27;;;;;;;;;;;22.60;54.80;;;;;;5043753;28;20337;-64
2023/11/04 00:31:53;;;;;;;;;;;22.60;54.80;;;;;;5039905;28;20355;-68
2023/11/04 00:34:18;;;;;;;;;;;22.60;54.80;;;;;;5040883;28;19909;-68
2023/11/04 00:36:44;;;;;;;;;;;22.50;54.80;;;;;;5039714;28;19912;-68
2023/11/04 00:39:12;;;;;;;;;;;22.50;54.80;;;;;;5043653;28;20340;-68
2023/11/04 00:41:38;;;;;;;;;;;22.50;54.80;;;;;;5040353;28;20225;-68
2023/11/04 00:44:05;;;;;;;;;;;22.50;54.80;;;;;;5041508;28;19909;-68
2023/11/04 00:46:31;;;;;;;;;;;22.50;54.80;;;;;;5041205;28;19916;-69
2023/11/04 00:48:58;;;;;;;;;;;22.40;54.80;;;;;;5038774;28;20284;-68
2023/11/04 00:51:24;;;;;;;;;;;22.40;54.90;;;;;;5040185;28;19912;-68
2023/11/04 00:53:50;;;;;;;;;;;22.40;54.90;;;;;;5039550;28;19913;-68
2023/11/04 00:56:16;;;;;;;;;;;22.30;54.90;;;;;;5039125;28;19909;-68
2023/11/04 00:58:41;;;;;;;;;;;22.30;55.00;;;;;;5040458;28;19920;-68
2023/11/04 01:01:07;;;;;;;;;;;22.30;55.00;;;;;;5041352;28;19911;-69
2023/11/04 01:03:33;;;;;;;;;;;22.30;55.00;;;;;;5041608;28;20032;-68
2023/11/04 01:05:59;;;;;;;;;;;22.30;55.00;;;;;;5039648;28;20019;-67
2023/11/04 01:08:24;;;;;;;;;;;22.20;55.00;;;;;;5041473;28;20352;-68
2023/11/04 01:10:49;;;;;;;;;;;22.20;55.00;;;;;;5041211;28;19916;-68
2023/11/04 01:13:15;;;;;;;;;;;22.20;55.10;;;;;;5038551;28;20462;-68
2023/11/04 01:15:40;;;;;;;;;;;22.20;55.10;;;;;;5039705;28;19970;-68
2023/11/04 01:18:06;;;;;;;;;;;22.10;55.10;;;;;;5040404;28;20253;-68
2023/11/04 01:20:33;;;;;;;;;;;22.10;55.10;;;;;;5039063;28;19920;-68
2023/11/04 01:22:58;;;;;;;;;;;22.10;55.10;;;;;;5042019;28;19912;-68
2023/11/04 01:25:23;;;;;;;;;;;22.10;55.20;;;;;;5043221;28;20361;-68
2023/11/04 01:27:49;;;;;;;;;;;22.10;55.20;;;;;;5039260;28;19960;-68
2023/11/04 01:30:14;;;;;;;;;;;22.00;55.20;;;;;;5039873;28;19915;-68
2023/11/04 01:32:40;;;;;;;;;;;22.00;55.20;;;;;;5036463;28;19916;-68
2023/11/04 01:35:07;;;;;;;;;;;22.00;55.30;;;;;;5036695;28;20389;-68
2023/11/04 01:37:33;;;;;;;;;;;22.00;55.30;;;;;;5037915;28;20280;-68
2023/11/04 01:39:58;;;;;;;;;;;21.90;55.30;;;;;;5040705;28;19905;-68
2023/11/04 01:42:24;;;;;;;;;;;21.90;55.30;;;;;;5039736;28;19974;-68
2023/11/04 01:44:49;;;;;;;;;;;21.90;55.40;;;;;;5039768;28;20368;-68
2023/11/04 01:47:15;;;;;;;;;;;21.90;55.40;;;;;;5038972;28;19937;-68
2023/11/04 01:49:41;;;;;;;;;;;21.90;55.40;;;;;;5038578;28;19905;-68
2023/11/04 01:52:06;;;;;;;;;;;21.80;55.40;;;;;;5039220;28;19927;-68
2023/11/04 01:54:33;;;;;;;;;;;21.80;55.40;;;;;;5040640;28;20777;-68
2023/11/04 01:56:59;;;;;;;;;;;21.80;55.40;;;;;;5039184;28;19905;-68
2023/11/04 01:59:25;;;;;;;;;;;21.80;55.50;;;;;;5039319;28;20333;-68
2023/11/04 02:01:51;;;;;;;;;;;21.80;55.50;;;;;;5038415;28;19991;-68
2023/11/04 02:04:17;;;;;;;;;;;21.70;55.50;;;;;;5038000;28;20000;-69
2023/11/04 02:06:43;;;;;;;;;;;21.70;55.50;;;;;;5038623;28;19913;-68
2023/11/04 02:09:09;;;;;;;;;;;21.70;55.50;;;;;;5036874;28;20479;-68
2023/11/04 02:11:34;;;;;;;;;;;21.70;55.60;;;;;;5038304;28;20423;-68
2023/11/04 02:14:00;;;;;;;;;;;21.70;56.10;;;;;;5039644;28;19948;-68
2023/11/04 02:16:25;;;;;;;;;;;21.70;55.60;;;;;;5038543;28;19913;-68
2023/11/04 02:18:51;;;;;;;;;;;21.70;55.60;;;;;;5038491;28;20363;-68
2023/11/04 02:21:16;;;;;;;;;;;21.70;56.10;;;;;;5037477;28;19915;-68
2023/11/04 02:23:42;;;;;;;;;;;21.60;55.60;;;;;;5037502;28;20365;-68
2023/11/04 02:26:07;;;;;;;;;;;21.60;55.60;;;;;;5039842;28;19909;-68
2023/11/04 02:28:33;;;;;;;;;;;21.60;55.60;;;;;;5040616;28;19963;-68
2023/11/04 02:30:58;;;;;;;;;;;21.60;55.60;;;;;;5037492;28;19932;-66
2023/11/04 02:33:24;;;;;;;;;;;21.60;55.60;;;;;;5037259;28;19913;-65
2023/11/04 02:35:50;;;;;;;;;;;21.60;55.60;;;;;;5038217;28;19986;-66
2023/11/04 02:38:15;;;;;;;;;;;21.60;55.60;;;;;;5039828;28;19993;-65
2023/11/04 02:40:41;;;;;;;;;;;21.50;55.60;;;;;;5040590;28;19920;-74
2023/11/04 02:43:07;;;;;;;;;;;21.50;55.60;;;;;;5037296;28;19904;-74
2023/11/04 02:45:34;;;;;;;;;;;21.50;55.60;;;;;;5037489;28;19913;-73
2023/11/04 02:47:59;;;;;;;;;;;21.50;55.70;;;;;;5040942;28;19955;-72
2023/11/04 02:50:25;;;;;;;;;;;21.50;55.60;;;;;;5036433;28;19909;-68
2023/11/04 02:52:50;;;;;;;;;;;21.50;55.70;;;;;;5038179;28;20458;-68
2023/11/04 02:55:16;;;;;;;;;;;21.50;55.70;;;;;;5036416;28;19909;-68
2023/11/04 02:57:41;;;;;;;;;;;21.40;55.60;;;;;;5037557;28;20099;-67
2023/11/04 03:00:08;;;;;;;;;;;21.50;55.70;;;;;;5038562;28;19962;-67
2023/11/04 03:02:35;;;;;;;;;;;21.40;55.70;;;;;;5036177;28;20020;-68
2023/11/04 03:05:01;;;;;;;;;;;21.40;55.70;;;;;;5038159;28;20555;-68
2023/11/04 03:07:27;;;;;;;;;;;21.40;55.70;;;;;;5040123;28;19990;-67
2023/11/04 03:09:53;;;;;;;;;;;21.40;55.70;;;;;;5036753;28;20396;-67
2023/11/04 03:12:18;;;;;;;;;;;21.40;55.80;;;;;;5038074;28;20348;-67
2023/11/04 03:14:44;;;;;;;;;;;21.40;55.80;;;;;;5039543;28;19997;-67
2023/11/04 03:17:09;;;;;;;;;;;21.30;55.80;;;;;;5038917;28;20000;-68
2023/11/04 03:19:35;;;;;;;;;;;21.30;55.80;;;;;;5040551;28;20298;-68
2023/11/04 03:22:01;;;;;;;;;;;21.30;55.80;;;;;;5042454;28;20012;-67
2023/11/04 03:24:26;;;;;;;;;;;21.30;55.80;;;;;;5041094;28;19909;-67
2023/11/04 03:26:52;;;;;;;;;;;21.30;55.90;;;;;;5044294;28;19924;-68
2023/11/04 03:29:17;;;;;;;;;;;21.30;55.90;;;;;;5044749;28;20281;-67
2023/11/04 03:31:43;;;;;;;;;;;21.30;55.90;;;;;;5041259;28;20379;-68
2023/11/04 03:34:09;;;;;;;;;;;21.20;55.90;;;;;;5040382;28;20008;-67
2023/11/04 03:36:34;;;;;;;;;;;21.30;55.90;;;;;;5041498;28;20004;-67
2023/11/04 03:39:00;;;;;;;;;;;21.20;55.90;;;;;;5041614;28;20341;-68
2023/11/04 03:41:25;;;;;;;;;;;21.20;55.90;;;;;;5043252;28;19916;-67
2023/11/04 03:43:51;;;;;;;;;;;21.20;56.00;;;;;;5041030;28;19908;-68
2023/11/04 03:46:16;;;;;;;;;;;21.20;56.00;;;;;;5040883;28;20815;-68
2023/11/04 03:48:42;;;;;;;;;;;21.20;56.00;;;;;;5041562;28;20020;-67
2023/11/04 03:51:10;;;;;;;;;;;21.20;56.00;;;;;;5040614;28;19912;-67
2023/11/04 03:53:36;;;;;;;;;;;21.10;56.00;;;;;;5041248;28;20300;-67
2023/11/04 03:56:02;;;;;;;;;;;21.10;56.10;;;;;;5039312;28;19916;-68
2023/11/04 03:58:28;;;;;;;;;;;21.10;56.10;;;;;;5043553;28;20011;-68
2023/11/04 04:00:54;;;;;;;;;;;21.10;56.10;;;;;;5041185;28;20465;-68
2023/11/04 04:03:20;;;;;;;;;;;21.10;56.10;;;;;;5040969;28;19995;-68
2023/11/04 04:05:45;;;;;;;;;;;21.10;56.10;;;;;;5040578;28;20004;-68
2023/11/04 04:08:11;;;;;;;;;;;21.10;56.10;;;;;;5039306;28;19909;-68
2023/11/04 04:10:36;;;;;;;;;;;21.10;56.10;;;;;;5040129;28;20361;-68
2023/11/04 04:13:02;;;;;;;;;;;21.10;56.20;;;;;;5041336;28;19955;-68
2023/11/04 04:15:27;;;;;;;;;;;21.00;56.20;;;;;;5040920;28;20482;-68
2023/11/04 04:17:53;;;;;;;;;;;21.00;56.20;;;;;;5040271;28;19909;-68
2023/11/04 04:20:21;;;;;;;;;;;21.00;56.30;;;;;;5039201;28;19909;-68
2023/11/04 04:22:46;;;;;;;;;;;21.00;56.30;;;;;;5039948;28;20386;-68
2023/11/04 04:25:12;;;;;;;;;;;21.00;56.30;;;;;;5040751;28;19905;-68
2023/11/04 04:27:38;;;;;;;;;;;21.00;56.30;;;;;;5042379;28;19905;-69
2023/11/04 04:30:04;;;;;;;;;;;21.00;56.30;;;;;;5041484;28;19909;-68
2023/11/04 04:32:30;;;;;;;;;;;21.00;56.30;;;;;;5039273;28;19920;-68
2023/11/04 04:34:55;;;;;;;;;;;20.90;56.30;;;;;;5041596;28;19908;-68
2023/11/04 04:37:21;;;;;;;;;;;20.90;56.40;;;;;;5039575;28;19980;-68
2023/11/04 04:39:46;;;;;;;;;;;20.90;56.40;;;;;;5040450;28;19909;-68
2023/11/04 04:42:12;;;;;;;;;;;20.90;56.40;;;;;;5041313;28;20404;-68
2023/11/04 04:44:38;;;;;;;;;;;20.90;56.40;;;;;;5039818;28;19912;-68
2023/11/04 04:47:03;;;;;;;;;;;20.90;56.40;;;;;;5040612;28;19915;-68
2023/11/04 04:49:29;;;;;;;;;;;20.90;56.50;;;;;;5040463;28;19911;-68
2023/11/04 04:51:54;;;;;;;;;;;20.80;56.40;;;;;;5040829;28;20042;-73
2023/11/04 04:54:20;;;;;;;;;;;20.80;56.50;;;;;;5041870;28;20834;-74
2023/11/04 04:56:46;;;;;;;;;;;20.90;56.60;;;;;;5041057;28;19909;-73
2023/11/04 04:59:12;;;;;;;;;;;20.80;56.50;;;;;;5040637;28;20062;-74
2023/11/04 05:01:37;;;;;;;;;;;20.80;56.50;;;;;;5040477;28;19952;-73
2023/11/04 05:04:03;;;;;;;;;;;20.80;56.50;;;;;;5039046;28;19916;-74
2023/11/04 05:06:29;;;;;;;;;;;20.80;56.60;;;;;;5038398;28;19909;-72
2023/11/04 05:08:55;;;;;;;;;;;20.80;56.60;;;;;;5039363;28;19951;-73
2023/11/04 05:11:21;;;;;;;;;;;20.80;56.60;;;;;;5041622;28;19916;-65
2023/11/04 05:13:46;;;;;;;;;;;20.80;56.60;;;;;;5042828;28;19909;-66
2023/11/04 05:16:12;;;;;;;;;;;20.70;56.60;;;;;;5039774;28;19920;-64
2023/11/04 05:18:37;;;;;;;;;;;20.70;56.70;;;;;;5041892;28;19920;-65
2023/11/04 05:21:03;;;;;;;;;;;20.70;56.60;;;;;;5036290;28;19941;-64
2023/11/04 05:23:29;;;;;;;;;;;20.70;56.70;;;;;;5039456;28;20360;-65
2023/11/04 05:25:56;;;;;;;;;;;20.70;56.70;;;;;;5041983;28;19908;-65
2023/11/04 05:28:21;;;;;;;;;;;20.70;56.70;;;;;;5039922;28;20369;-64
2023/11/04 05:30:56;;;;;;;;;;;20.70;56.70;;;;;;5040239;28;19935;-65
2023/11/04 05:33:22;;;;;;;;;;;20.70;56.70;;;;;;5039271;28;20261;-65
2023/11/04 05:35:48;;;;;;;;;;;20.70;56.70;;;;;;5040638;28;19905;-66
2023/11/04 05:38:13;;;;;;;;;;;20.70;56.70;;;;;;5068812;28;19913;-64
2023/11/04 05:40:39;;;;;;;;;;;20.70;56.70;;;;;;5040787;28;19912;-65
2023/11/04 05:43:04;;;;;;;;;;;20.70;56.80;;;;;;5042723;28;19916;-65
2023/11/04 05:45:30;;;;;;;;;;;20.70;56.80;;;;;;5038588;28;20310;-67
2023/11/04 05:47:56;;;;;;;;;;;20.60;56.70;;;;;;5041169;28;19924;-64
2023/11/04 05:50:21;;;;;;;;;;;20.60;56.80;;;;;;5039744;28;19930;-65
2023/11/04 05:52:48;;;;;;;;;;;20.60;56.80;;;;;;5039705;28;19921;-67
2023/11/04 05:55:13;;;;;;;;;;;20.60;56.80;;;;;;5040461;28;20308;-67
2023/11/04 05:57:39;;;;;;;;;;;20.60;56.80;;;;;;5040015;28;19916;-65
2023/11/04 06:00:11;;;;;;;;;;;20.60;56.80;;;;;;5039765;28;19916;-65
2023/11/04 06:02:37;;;;;;;;;;;20.60;56.80;;;;;;5040990;28;20297;-73
2023/11/04 06:05:03;;;;;;;;;;;20.60;56.80;;;;;;5040744;28;19947;-73
2023/11/04 06:07:29;;;;;;;;;;;20.60;56.80;;;;;;5037213;28;20318;-73
2023/11/04 06:09:55;;;;;;;;;;;20.60;56.80;;;;;;5038987;28;20301;-74
2023/11/04 06:12:21;;;;;;;;;;;20.60;56.80;;;;;;5039095;28;19931;-68
2023/11/04 06:14:47;;;;;;;;;;;20.60;56.80;;;;;;5039859;28;19905;-67
2023/11/04 06:17:13;;;;;;;;;;;20.50;56.80;;;;;;5039057;28;20379;-68
2023/11/04 06:19:38;;;;;;;;;;;20.60;56.80;;;;;;5038121;28;19909;-67
2023/11/04 06:22:05;;;;;;;;;;;20.60;56.90;;;;;;5037742;28;19909;-68
2023/11/04 06:24:30;;;;;;;;;;;20.60;56.90;;;;;;5037000;28;19909;-68
2023/11/04 06:26:58;;;;;;;;;;;20.50;56.80;;;;;;5039196;28;19905;-67
2023/11/04 06:29:24;;;;;;;;;;;20.50;56.80;;;;;;5039244;28;19909;-68
2023/11/04 06:31:50;;;;;;;;;;;20.50;56.80;;;;;;5039710;28;19909;-67
2023/11/04 06:34:15;;;;;;;;;;;20.50;56.80;;;;;;5038679;28;19967;-68
2023/11/04 06:36:41;;;;;;;;;;;20.50;56.80;;;;;;5044053;28;20852;-68
2023/11/04 06:39:07;;;;;;;;;;;20.50;57.30;;;;;;5037713;28;19912;-67
2023/11/04 06:41:33;;;;;;;;;;;20.50;56.90;;;;;;5038868;28;20415;-68
2023/11/04 06:43:59;;;;;;;;;;;20.50;56.80;;;;;;5038046;28;20356;-67
2023/11/04 06:46:24;;;;;;;;;;;20.50;56.90;;;;;;5040008;28;19911;-67
2023/11/04 06:48:51;;;;;;;;;;;20.50;56.90;;;;;;5039042;28;19908;-68
2023/11/04 06:51:18;;;;;;;;;;;20.50;56.90;;;;;;5039653;28;19905;-68
2023/11/04 06:53:44;;;;;;;;;;;20.50;56.90;;;;;;5037893;28;19921;-67
2023/11/04 06:56:09;;;;;;;;;;;20.50;56.90;;;;;;5041893;28;19931;-68
2023/11/04 06:58:35;;;;;;;;;;;20.40;56.90;;;;;;5044969;28;20428;-67
2023/11/04 07:01:01;;;;;;;;;;;20.40;56.90;;;;;;5043427;28;19909;-68
2023/11/04 07:03:29;;;;;;;;;;;20.50;56.90;;;;;;5043037;28;19909;-68
2023/11/04 07:05:55;;;;;;;;;;;20.40;56.90;;;;;;5041116;28;20003;-68
2023/11/04 07:08:20;;;;;;;;;;;20.40;56.90;;;;;;5043587;28;19999;-68
2023/11/04 07:10:46;;;;;;;;;;;20.40;56.90;;;;;;5043350;28;19916;-68
2023/11/04 07:13:12;;;;;;;;;;;20.40;56.90;;;;;;5042787;28;20444;-68
2023/11/04 07:15:40;;;;;;;;;;;20.40;56.90;;;;;;5044643;28;19962;-68
2023/11/04 07:18:07;;;;;;;;;;;20.40;56.90;;;;;;5042385;28;19909;-68
2023/11/04 07:20:34;;;;;;;;;;;20.40;57.00;;;;;;5043464;28;19996;-68
2023/11/04 07:23:01;;;;;;;;;;;20.40;56.90;;;;;;5040817;28;20340;-68
2023/11/04 07:25:26;;;;;;;;;;;20.40;56.90;;;;;;5045830;28;19912;-68
2023/11/04 07:27:52;;;;;;;;;;;20.40;57.00;;;;;;5040537;28;20011;-68
2023/11/04 07:30:17;;;;;;;;;;;20.40;57.00;;;;;;5042431;28;19931;-68
2023/11/04 07:32:43;;;;;;;;;;;20.40;57.00;;;;;;5041378;28;20078;-68
2023/11/04 07:35:09;;;;;;;;;;;20.40;57.00;;;;;;5041165;28;19912;-68
2023/11/04 07:37:36;;;;;;;;;;;20.40;57.00;;;;;;5040633;28;20498;-68
2023/11/04 07:40:04;;;;;;;;;;;20.40;57.00;;;;;;5041132;28;20006;-68
2023/11/04 07:42:30;;;;;;;;;;;20.30;56.90;;;;;;5039471;28;20020;-68
2023/11/04 07:44:55;;;;;;;;;;;20.40;57.00;;;;;;5042526;28;20015;-68
2023/11/04 07:47:21;;;;;;;;;;;20.40;57.10;;;;;;5040995;28;20470;-68
2023/11/04 07:49:47;;;;;;;;;;;20.40;57.00;;;;;;5040459;28;20002;-68
2023/11/04 07:52:13;;;;;;;;;;;20.40;57.00;;;;;;5036442;28;19952;-68
2023/11/04 07:54:39;;;;;;;;;;;20.40;57.10;;;;;;5043459;28;19923;-68
2023/11/04 07:57:04;;;;;;;;;;;20.40;57.00;;;;;;5043280;28;19905;-68
2023/11/04 07:59:30;;;;;;;;;;;20.30;57.00;;;;;;5040563;28;19969;-68
2023/11/04 08:01:55;;;;;;;;;;;20.40;57.00;;;;;;5042132;28;20002;-68
2023/11/04 08:04:22;;;;;;;;;;;20.30;57.00;;;;;;5041359;28;19909;-68
2023/11/04 08:06:48;;;;;;;;;;;20.30;57.00;;;;;;5040894;28;19909;-68
2023/11/04 08:09:13;;;;;;;;;;;20.30;57.00;;;;;;5039123;28;20390;-67
2023/11/04 08:11:39;;;;;;;;;;;20.30;57.00;;;;;;5042321;28;19909;-67
2023/11/04 08:14:04;;;;;;;;;;;20.30;57.10;;;;;;5040690;28;20326;-68
2023/11/04 08:16:30;;;;;;;;;;;20.30;57.10;;;;;;5040756;28;19916;-67
2023/11/04 08:18:55;;;;;;;;;;;20.30;57.00;;;;;;5040795;28;20210;-68
2023/11/04 08:21:22;;;;;;;;;;;20.30;57.10;;;;;;5041246;28;19909;-67
2023/11/04 08:23:48;;;;;;;;;;;20.30;57.10;;;;;;5037896;28;19909;-67
2023/11/04 08:26:13;;;;;;;;;;;20.30;57.10;;;;;;5038425;28;19991;-67
2023/11/04 08:28:39;;;;;;;;;;;20.30;57.10;;;;;;5040822;28;19908;-66
2023/11/04 08:31:04;;;;;;;;;;;20.30;57.10;;;;;;5040992;28;19912;-66
2023/11/04 08:33:31;;;;;;;;;;;20.30;57.10;;;;;;5041095;28;19913;-64
2023/11/04 08:35:57;;;;;;;;;;;20.30;57.10;;;;;;5040674;28;19905;-64
2023/11/04 08:38:23;;;;;;;;;;;20.30;57.10;;;;;;5040591;28;19958;-66
2023/11/04 08:40:50;;;;;;;;;;;20.30;57.10;;;;;;5039808;28;19974;-71
2023/11/04 08:43:16;;;;;;;;;;;20.30;57.10;;;;;;5041952;28;20008;-73
2023/11/04 08:45:41;;;;;;;;;;;20.30;57.10;;;;;;5041208;28;20396;-72
2023/11/04 08:48:07;;;;;;;;;;;20.30;57.10;;;;;;5039615;28;20011;-71
2023/11/04 08:50:32;;;;;;;;;;;20.30;57.20;;;;;;5041401;28;19909;-72
2023/11/04 08:52:58;;;;;;;;;;;20.30;57.20;;;;;;5037524;28;19944;-72
2023/11/04 08:55:23;;;;;;;;;;;20.30;57.20;;;;;;5042613;28;19909;-71
2023/11/04 08:57:49;;;;;;;;;;;20.20;57.10;;;;;;5038918;28;19909;-74
2023/11/04 09:00:15;;;;;;;;;;;20.20;57.10;;;;;;5041707;28;19912;-72
2023/11/04 09:02:41;;;;;;;;;;;20.20;57.10;;;;;;5037144;28;20339;-72
2023/11/04 09:05:08;;;;;;;;;;;20.20;57.20;;;;;;5041174;28;19905;-73
2023/11/04 09:07:34;;;;;;;;;;;20.20;57.10;;;;;;5038533;28;19912;-71
2023/11/04 09:09:59;;;;;;;;;;;20.20;57.20;;;;;;5039678;28;19931;-74
2023/11/04 09:12:24;;;;;;;;;;;20.20;57.20;;;;;;5038130;28;19919;-73
2023/11/04 09:14:50;;;;;;;;;;;20.20;57.20;;;;;;5040013;28;19909;-72
2023/11/04 09:17:17;;;;;;;;;;;20.20;57.20;;;;;;5039870;28;19958;-73
2023/11/04 09:19:42;;;;;;;;;;;20.20;57.20;;;;;;5037776;28;19908;-71
2023/11/04 09:22:08;;;;;;;;;;;20.20;57.20;;;;;;5041173;28;20361;-72
2023/11/04 09:24:34;;;;;;;;;;;20.20;57.20;;;;;;5038108;28;19905;-72
2023/11/04 09:26:59;;;;;;;;;;;20.20;57.20;;;;;;5039200;28;19911;-72
2023/11/04 09:29:25;;;;;;;;;;;20.20;57.20;;;;;;5040633;28;19962;-72
2023/11/04 09:31:51;;;;;;;;;;;20.20;57.30;;;;;;5039702;28;20411;-72
2023/11/04 09:34:16;;;;;;;;;;;20.20;57.30;;;;;;5040202;28;19913;-71
2023/11/04 09:36:41;;;;;;;;;;;20.20;57.30;;;;;;5039238;28;19909;-73
2023/11/04 09:39:07;;;;;;;;;;;20.20;57.30;;;;;;5042436;28;20003;-73
2023/11/04 09:41:34;;;;;;;;;;;20.20;57.30;;;;;;5040644;28;20012;-65
2023/11/04 09:43:59;;;;;;;;;;;20.20;57.30;;;;;;5040123;28;20331;-64
2023/11/04 09:46:25;;;;;;;;;;;20.10;57.20;;;;;;5037711;28;19931;-64
2023/11/04 09:48:51;;;;;;;;;;;20.20;57.30;;;;;;5040656;28;19955;-64
2023/11/04 09:51:21;;;;;;;;;;;20.20;57.30;;;;;;5042009;28;19952;-67
2023/11/04 09:53:53;;;;;;;;;;;20.20;57.30;;;;;;5037924;28;19924;-67
2023/11/04 09:56:19;;;;;;;;;;;20.20;57.30;;;;;;5036928;28;19912;-67
2023/11/04 09:58:45;;;;;;;;;;;20.20;57.20;;;;;;5040283;28;20262;-68
2023/11/04 10:01:11;;;;;;;;;;;20.20;57.30;;;;;;5040591;28;20422;-67
2023/11/04 10:03:36;;;;;;;;;;;20.20;57.20;;;;;;5037318;28;20348;-67
2023/11/04 10:06:02;;;;;;;;;;;20.20;57.20;;;;;;5038679;28;19958;-67
2023/11/04 10:08:27;;;;;;;;;;;20.20;57.30;;;;;;5038462;28;20372;-67
2023/11/04 10:10:53;;;;;;;;;;;20.10;57.70;;;;;;5037742;28;19913;-68
2023/11/04 10:13:18;;;;;;;;;;;20.10;57.10;;;;;;5038868;28;19912;-67
2023/11/04 10:15:45;;;;;;;;;;;20.10;57.10;;;;;;5040210;28;19915;-67
2023/11/04 10:18:11;;;;;;;;;;;20.10;57.10;;;;;;5038018;28;19909;-67
2023/11/04 10:20:37;;;;;;;;;;;20.10;57.20;;;;;;5037847;28;19916;-68
2023/11/04 10:23:02;;;;;;;;;;;20.10;57.10;;;;;;5038901;28;19909;-67
2023/11/04 10:25:28;;;;;;;;;;;20.10;57.10;;;;;;5040921;28;19951;-67
2023/11/04 10:27:54;;;;;;;;;;;20.10;57.10;;;;;;5040305;28;19960;-67
2023/11/04 10:30:19;;;;;;;;;;;20.10;57.10;;;;;;5037585;28;19905;-67
2023/11/04 10:32:47;;;;;;;;;;;20.10;57.10;;;;;;5038083;28;19915;-67
2023/11/04 10:35:15;;;;;;;;;;;20.10;57.10;;;;;;5038821;28;19912;-67
2023/11/04 10:37:43;;;;;;;;;;;20.10;57.10;;;;;;5036880;28;20365;-68
2023/11/04 10:40:10;;;;;;;;;;;20.10;57.10;;;;;;5036734;28;19985;-67
2023/11/04 10:42:39;;;;;;;;;;;20.10;57.10;;;;;;5039341;28;19905;-64
2023/11/04 10:45:16;;;;;;;;;;;20.10;57.20;;;;;;5040314;28;19909;-64
2023/11/04 10:47:54;;;;;;;;;;;20.10;57.10;;;;;;5041148;28;20427;-64
2023/11/04 10:50:23;;;;;;;;;;;20.10;57.10;;;;;;5040414;28;19976;-64
2023/11/04 10:52:59;;;;;;;;;;;20.10;57.10;;;;;;5038857;28;19995;-67
2023/11/04 10:55:29;;;;;;;;;;;20.10;57.10;;;;;;5036919;28;20391;-67
2023/11/04 10:58:18;;;;;;;;;;;20.10;57.10;;;;;;5035509;28;19909;-67
2023/11/04 11:00:44;;;;;;;;;;;20.10;57.10;;;;;;5038489;28;19908;-67
2023/11/04 11:03:10;;;;;;;;;;;20.10;57.20;;;;;;5036632;28;19915;-67
2023/11/04 11:05:35;;;;;;;;;;;20.10;57.10;;;;;;5036761;28;19956;-68
2023/11/04 11:08:03;;;;;;;;;;;20.10;57.10;;;;;;5037500;28;19909;-67
2023/11/04 11:10:41;;;;;;;;;;;20.10;57.10;;;;;;5039723;28;19956;-68
2023/11/04 11:13:23;;;;;;;;;;;20.10;57.10;;;;;;5039480;28;19999;-67
2023/11/04 11:15:48;;;;;;;;;;;20.10;57.10;;;;;;5038653;28;19905;-67
2023/11/04 11:18:27;;;;;;;;;;;20.10;57.10;;;;;;5037593;28;19915;-68
2023/11/04 11:20:52;;;;;;;;;;;20.10;57.10;;;;;;5041010;28;19948;-67
2023/11/04 11:23:25;;;;;;;;;;;20.10;57.20;;;;;;5040380;28;19951;-67
2023/11/04 11:26:00;;;;;;;;;;;20.10;57.10;;;;;;5036661;28;19995;-66
2023/11/04 11:28:33;;;;;;;;;;;20.10;57.10;;;;;;5038950;28;20399;-66
2023/11/04 11:30:58;;;;;;;;;;;20.10;57.70;;;;;;5039684;28;19912;-66
2023/11/04 11:33:25;;;;;;;;;;;20.10;57.20;;;;;;5035855;28;20356;-68
2023/11/04 11:35:59;;;;;;;;;;;20.10;57.20;;;;;;5038833;28;19909;-68
2023/11/04 11:38:25;;;;;;;;;;;20.10;57.20;;;;;;5040435;28;20280;-66
2023/11/04 11:40:51;;;;;;;;;;;20.10;57.20;;;;;;5037196;28;19936;-68
2023/11/04 11:43:18;;;;;;;;;;;20.10;57.20;;;;;;5042867;28;19916;-66
2023/11/04 11:45:44;;;;;;;;;;;20.10;57.20;;;;;;5040229;28;19920;-65
2023/11/04 11:48:11;;;;;;;;;;;20.10;57.20;;;;;;5049707;28;19909;-66
2023/11/04 11:50:42;;;;;;;;;;;20.10;57.70;;;;;;5042211;28;19911;-66
2023/11/04 11:53:11;;;;;;;;;;;20.10;57.20;;;;;;5042209;28;19925;-63
2023/11/04 11:55:37;;;;;;;;;;;20.10;57.20;;;;;;5040084;28;19948;-62
2023/11/04 11:58:03;;;;;;;;;;;20.10;57.30;;;;;;5039712;28;19908;-64
2023/11/04 12:00:28;;;;;;;;;;;20.10;57.30;;;;;;5038084;28;19912;-64
2023/11/04 12:02:54;;;;;;;;;;;20.10;57.20;;;;;;5040099;28;20365;-71
2023/11/04 12:05:21;;;;;;;;;;;20.10;57.20;;;;;;5041710;28;19956;-71
2023/11/04 12:07:46;;;;;;;;;;;20.10;57.20;;;;;;5039789;28;19909;-71
2023/11/04 12:10:12;;;;;;;;;;;20.10;57.30;;;;;;5040397;28;20775;-71
2023/11/04 12:12:38;;;;;;;;;;;20.10;57.30;;;;;;5042386;28;19913;-65
2023/11/04 12:15:10;;;;;;;;;;;20.10;57.30;;;;;;5040435;28;20533;-65
2023/11/04 12:17:36;;;;;;;;;;;20.10;57.40;;;;;;5039626;28;19909;-65
2023/11/04 12:20:04;;;;;;;;;;;20.10;57.30;;;;;;5041344;28;19919;-65
2023/11/04 12:22:29;;;;;;;;;;;20.10;57.40;;;;;;5041263;28;20000;-65
2023/11/04 12:24:55;;;;;;;;;;;20.10;57.40;;;;;;5039707;28;20011;-66
2023/11/04 12:27:20;;;;;;;;;;;20.10;57.40;;;;;;5040003;28;19913;-65
2023/11/04 12:29:51;;;;;;;;;;;20.10;57.40;;;;;;5041406;28;20445;-65
2023/11/04 12:32:20;;;;;;;;;;;20.10;57.40;;;;;;5040282;28;19912;-65
2023/11/04 12:34:58;;;;;;;;;;;20.10;57.40;;;;;;5042050;28;20296;-66
2023/11/04 12:37:27;;;;;;;;;;;20.10;57.40;;;;;;5041396;28;20476;-65
2023/11/04 12:39:53;;;;;;;;;;;20.10;57.50;;;;;;5036912;28;19913;-65
2023/11/04 12:42:19;;;;;;;;;;;20.10;57.40;;;;;;5039303;28;19959;-65
2023/11/04 12:44:44;;;;;;;;;;;20.10;57.40;;;;;;5039939;28;19913;-65
2023/11/04 12:47:10;;;;;;;;;;;20.10;57.40;;;;;;5040309;28;19935;-65
2023/11/04 12:49:37;;;;;;;;;;;20.10;57.40;;;;;;5039684;28;19909;-65
2023/11/04 12:52:06;;;;;;;;;;;20.10;57.40;;;;;;5039894;28;19919;-65
2023/11/04 12:54:32;;;;;;;;;;;20.10;57.40;;;;;;5038913;28;19921;-65
2023/11/04 12:56:58;;;;;;;;;;;20.10;57.40;;;;;;5039838;28;20012;-65
2023/11/04 12:59:24;;;;;;;;;;;20.10;57.40;;;;;;5039362;28;19917;-65
2023/11/04 13:01:50;;;;;;;;;;;20.10;57.40;;;;;;5039685;28;19911;-70
2023/11/04 13:04:16;;;;;;;;;;;20.10;57.40;;;;;;5039147;28;20324;-70
2023/11/04 13:06:42;;;;;;;;;;;20.10;57.40;;;;;;5040292;28;19932;-69
2023/11/04 13:09:08;;;;;;;;;;;20.10;57.40;;;;;;5040452;28;20448;-69
2023/11/04 13:11:34;;;;;;;;;;;20.10;57.40;;;;;;5038479;28;20008;-71
2023/11/04 13:13:59;;;;;;;;;;;20.10;57.40;;;;;;5040120;28;19978;-70
2023/11/04 13:16:25;;;;;;;;;;;20.10;57.40;;;;;;5038858;28;20591;-69
2023/11/04 13:18:50;;;;;;;;;;;20.10;57.40;;;;;;5036915;28;19905;-70
2023/11/04 13:21:16;;;;;;;;;;;20.10;57.40;;;;;;5038996;28;20329;-62
2023/11/04 13:23:41;;;;;;;;;;;20.10;57.40;;;;;;5040095;28;19996;-63
2023/11/04 13:26:07;;;;;;;;;;;20.10;57.40;;;;;;5039319;28;20040;-64
2023/11/04 13:28:32;;;;;;;;;;;20.10;57.40;;;;;;5040164;28;19913;-64
2023/11/04 13:30:58;;;;;;;;;;;20.10;57.90;;;;;;5039852;28;19909;-63
2023/11/04 13:33:24;;;;;;;;;;;20.10;57.40;;;;;;5040761;28;20361;-65
2023/11/04 13:35:49;;;;;;;;;;;20.10;57.40;;;;;;5041281;28;19908;-62
2023/11/04 13:38:15;;;;;;;;;;;20.10;57.40;;;;;;5041267;28;19952;-63
2023/11/04 13:40:41;;;;;;;;;;;20.10;57.40;;;;;;5037370;28;19909;-63
2023/11/04 13:43:08;;;;;;;;;;;20.10;57.40;;;;;;5039738;28;20093;-63
2023/11/04 13:45:33;;;;;;;;;;;20.10;57.40;;;;;;5041820;28;21122;-63
2023/11/04 13:47:59;;;;;;;;;;;20.10;57.40;;;;;;5039804;28;19996;-63
2023/11/04 13:50:24;;;;;;;;;;;20.10;57.40;;;;;;5041218;28;19905;-63
2023/11/04 13:52:50;;;;;;;;;;;20.10;57.40;;;;;;5040176;28;19912;-62
2023/11/04 13:55:15;;;;;;;;;;;20.10;57.40;;;;;;5038085;28;19917;-63
2023/11/04 13:57:42;;;;;;;;;;;20.10;57.40;;;;;;5041506;28;20012;-63
2023/11/04 14:00:08;;;;;;;;;;;20.10;57.40;;;;;;5041074;28;19905;-63
2023/11/04 14:02:34;;;;;;;;;;;20.10;57.40;;;;;;5038681;28;20356;-62
2023/11/04 14:05:00;;;;;;;;;;;20.10;57.40;;;;;;5037805;28;19919;-63
2023/11/04 14:07:26;;;;;;;;;;;20.10;57.40;;;;;;5039598;28;19979;-63
2023/11/04 14:09:52;;;;;;;;;;;20.10;57.40;;;;;;5037548;28;19944;-65